sensor_id;sensor_type;location;lat;lon;timestamp;pressure;altitude;pressure_sealevel;temperature;humidity
21273;BME280;36726;52.328;10.552;2023-01-16T00:01:51;98863.84;;;5.37;87.01
21273;BME280;36726;52.328;10.552;2023-01-16T00:04:17;98860.38;;;5.40;86.64
21273;BME280;36726;52.328;10.552;2023-01-16T00:06:44;98857.72;;;5.38;86.88
21273;BME280;36726;52.328;10.552;2023-01-16T00:09:11;98859.47;;;5.35;86.47
21273;BME280;36726;52.328;10.552;2023-01-16T00:11:37;98861.19;;;5.32;87.13
21273;BME280;36726;52.328;10.552;2023-01-16T00:14:05;98860.28;;;5.29;87.13
21273;BME280;36726;52.328;10.552;2023-01-16T00:16:31;98857.69;;;5.29;87.13
21273;BME280;36726;52.328;10.552;2023-01-16T00:18:59;98859.44;;;5.28;87.69
21273;BME280;36726;52.328;10.552;2023-01-16T00:21:25;98857.66;;;5.27;87.69
21273;BME280;36726;52.328;10.552;2023-01-16T00:23:57;98855.94;;;5.29;87.69
21273;BME280;36726;52.328;10.552;2023-01-16T00:26:25;98852.47;;;5.35;87.26
21273;BME280;36726;52.328;10.552;2023-01-16T00:28:52;98861.25;;;5.40;87.37
21273;BME280;36726;52.328;10.552;2023-01-16T00:31:19;98863.91;;;5.46;87.69
21273;BME280;36726;52.328;10.552;2023-01-16T00:33:46;98856.06;;;5.51;87.04
21273;BME280;36726;52.328;10.552;2023-01-16T00:36:12;98850.84;;;5.57;87.21
21273;BME280;36726;52.328;10.552;2023-01-16T00:38:39;98848.22;;;5.60;86.85
21273;BME280;36726;52.328;10.552;2023-01-16T00:41:06;98846.50;;;5.60;86.92
21273;BME280;36726;52.328;10.552;2023-01-16T00:43:33;98843.88;;;5.56;86.80
21273;BME280;36726;52.328;10.552;2023-01-16T00:46:00;98835.06;;;5.51;86.33
21273;BME280;36726;52.328;10.552;2023-01-16T00:48:26;98828.06;;;5.44;86.58
21273;BME280;36726;52.328;10.552;2023-01-16T00:50:53;98824.53;;;5.36;86.33
21273;BME280;36726;52.328;10.552;2023-01-16T00:53:20;98824.50;;;5.29;86.86
21273;BME280;36726;52.328;10.552;2023-01-16T00:55:46;98818.34;;;5.23;86.84
21273;BME280;36726;52.328;10.552;2023-01-16T00:58:13;98820.91;;;5.18;86.54
21273;BME280;36726;52.328;10.552;2023-01-16T01:00:40;98817.41;;;5.13;86.67
21273;BME280;36726;52.328;10.552;2023-01-16T01:03:06;98819.13;;;5.11;86.79
21273;BME280;36726;52.328;10.552;2023-01-16T01:05:37;98809.50;;;5.06;87.47
21273;BME280;36726;52.328;10.552;2023-01-16T01:08:04;98810.38;;;5.03;87.41
21273;BME280;36726;52.328;10.552;2023-01-16T01:10:32;98808.59;;;5.02;86.98
21273;BME280;36726;52.328;10.552;2023-01-16T01:12:59;98805.97;;;5.02;87.47
21273;BME280;36726;52.328;10.552;2023-01-16T01:15:25;98809.47;;;5.04;87.84
21273;BME280;36726;52.328;10.552;2023-01-16T01:17:52;98802.50;;;5.06;87.20
21273;BME280;36726;52.328;10.552;2023-01-16T01:20:18;98801.63;;;5.07;87.54
21273;BME280;36726;52.328;10.552;2023-01-16T01:22:45;98803.41;;;5.05;88.21
21273;BME280;36726;52.328;10.552;2023-01-16T01:25:12;98811.22;;;5.01;87.74
21273;BME280;36726;52.328;10.552;2023-01-16T01:27:39;98805.03;;;4.93;87.96
21273;BME280;36726;52.328;10.552;2023-01-16T01:30:06;98813.75;;;4.87;88.06
21273;BME280;36726;52.328;10.552;2023-01-16T01:32:33;98809.34;;;4.85;88.32
21273;BME280;36726;52.328;10.552;2023-01-16T01:34:59;98806.72;;;4.83;88.20
21273;BME280;36726;52.328;10.552;2023-01-16T01:37:27;98796.25;;;4.83;88.52
21273;BME280;36726;52.328;10.552;2023-01-16T01:39:53;98802.34;;;4.81;88.95
21273;BME280;36726;52.328;10.552;2023-01-16T01:42:20;98789.25;;;4.81;88.42
21273;BME280;36726;52.328;10.552;2023-01-16T01:47:37;98790.25;;;4.98;88.49
21273;BME280;36726;52.328;10.552;2023-01-16T01:50:16;98778.03;;;5.04;88.17
21273;BME280;36726;52.328;10.552;2023-01-16T01:52:44;98783.34;;;5.09;88.00
21273;BME280;36726;52.328;10.552;2023-01-16T01:55:12;98778.94;;;5.09;88.28
21273;BME280;36726;52.328;10.552;2023-01-16T01:57:43;98770.22;;;5.09;88.58
21273;BME280;36726;52.328;10.552;2023-01-16T02:00:15;98767.56;;;5.07;88.10
21273;BME280;36726;52.328;10.552;2023-01-16T02:02:46;98759.72;;;5.07;87.96
21273;BME280;36726;52.328;10.552;2023-01-16T02:05:20;98756.25;;;5.11;88.21
21273;BME280;36726;52.328;10.552;2023-01-16T02:07:48;98737.94;;;5.14;87.89
21273;BME280;36726;52.328;10.552;2023-01-16T02:10:22;98742.31;;;5.18;88.36
21273;BME280;36726;52.328;10.552;2023-01-16T02:12:53;98738.84;;;5.22;87.44
21273;BME280;36726;52.328;10.552;2023-01-16T02:15:21;98735.38;;;5.26;87.42
21273;BME280;36726;52.328;10.552;2023-01-16T02:17:49;98731.00;;;5.30;87.62
21273;BME280;36726;52.328;10.552;2023-01-16T02:20:46;98720.53;;;5.28;87.93
21273;BME280;36726;52.328;10.552;2023-01-16T02:26:38;98719.59;;;5.17;87.71
21273;BME280;36726;52.328;10.552;2023-01-16T02:29:17;98715.22;;;5.13;87.34
21273;BME280;36726;52.328;10.552;2023-01-16T02:32:03;98707.31;;;5.06;87.42
21273;BME280;36726;52.328;10.552;2023-01-16T02:34:43;98703.81;;;5.02;88.05
21273;BME280;36726;52.328;10.552;2023-01-16T02:40:48;98701.19;;;5.04;87.84
21273;BME280;36726;52.328;10.552;2023-01-16T02:43:02;98689.00;;;5.10;88.31
21273;BME280;36726;52.328;10.552;2023-01-16T02:46:08;98693.41;;;5.16;87.58
21273;BME280;36726;52.328;10.552;2023-01-16T02:48:45;98678.56;;;5.22;87.70
21273;BME280;36726;52.328;10.552;2023-01-16T02:51:23;98677.72;;;5.26;87.75
21273;BME280;36726;52.328;10.552;2023-01-16T02:54:10;98675.09;;;5.29;87.28
21273;BME280;36726;52.328;10.552;2023-01-16T02:56:43;98663.75;;;5.31;87.35
21273;BME280;36726;52.328;10.552;2023-01-16T02:59:14;98661.97;;;5.31;87.87
21273;BME280;36726;52.328;10.552;2023-01-16T03:01:44;98660.25;;;5.30;87.48
21273;BME280;36726;52.328;10.552;2023-01-16T03:13:11;98641.81;;;5.06;87.46
21273;BME280;36726;52.328;10.552;2023-01-16T03:15:52;98635.69;;;5.02;87.33
21273;BME280;36726;52.328;10.552;2023-01-16T03:26:58;98619.94;;;4.92;87.00
21273;BME280;36726;52.328;10.552;2023-01-16T03:29:45;98614.66;;;4.86;87.69
21273;BME280;36726;52.328;10.552;2023-01-16T03:35:13;98612.00;;;4.74;88.03
21273;BME280;36726;52.328;10.552;2023-01-16T03:37:49;98608.44;;;4.66;87.52
21273;BME280;36726;52.328;10.552;2023-01-16T03:40:22;98611.06;;;4.61;88.14
21273;BME280;36726;52.328;10.552;2023-01-16T03:45:28;98599.69;;;4.58;88.36
21273;BME280;36726;52.328;10.552;2023-01-16T03:48:11;98593.63;;;4.66;88.70
21273;BME280;36726;52.328;10.552;2023-01-16T03:50:53;98594.56;;;4.77;88.29
21273;BME280;36726;52.328;10.552;2023-01-16T03:53:27;98583.25;;;4.87;88.04
21273;BME280;36726;52.328;10.552;2023-01-16T03:56:15;98570.16;;;4.95;88.66
21273;BME280;36726;52.328;10.552;2023-01-16T03:58:49;98566.69;;;4.99;88.44
21273;BME280;36726;52.328;10.552;2023-01-16T04:01:24;98571.06;;;5.00;87.64
21273;BME280;36726;52.328;10.552;2023-01-16T04:03:58;98557.09;;;4.99;88.28
21273;BME280;36726;52.328;10.552;2023-01-16T04:07:05;98560.56;;;4.95;87.91
21273;BME280;36726;52.328;10.552;2023-01-16T04:09:46;98562.31;;;4.89;87.72
21273;BME280;36726;52.328;10.552;2023-01-16T04:12:15;98558.78;;;4.81;87.42
21273;BME280;36726;52.328;10.552;2023-01-16T04:14:47;98550.03;;;4.73;87.99
21273;BME280;36726;52.328;10.552;2023-01-16T04:17:18;98536.91;;;4.65;87.98
21273;BME280;36726;52.328;10.552;2023-01-16T04:19:44;98539.50;;;4.59;88.23
21273;BME280;36726;52.328;10.552;2023-01-16T04:22:19;98529.00;;;4.50;88.57
21273;BME280;36726;52.328;10.552;2023-01-16T04:24:47;98530.72;;;4.45;88.88
21273;BME280;36726;52.328;10.552;2023-01-16T04:27:13;98526.38;;;4.47;88.81
21273;BME280;36726;52.328;10.552;2023-01-16T04:29:40;98523.75;;;4.53;89.29
21273;BME280;36726;52.328;10.552;2023-01-16T04:32:06;98514.19;;;4.58;89.39
21273;BME280;36726;52.328;10.552;2023-01-16T04:34:33;98515.09;;;4.63;88.92
21273;BME280;36726;52.328;10.552;2023-01-16T04:36:59;98510.69;;;4.62;88.73
21273;BME280;36726;52.328;10.552;2023-01-16T04:39:26;98506.34;;;4.58;89.34
21273;BME280;36726;52.328;10.552;2023-01-16T04:41:53;98499.34;;;4.51;89.36
21273;BME280;36726;52.328;10.552;2023-01-16T04:44:19;98495.81;;;4.45;89.69
21273;BME280;36726;52.328;10.552;2023-01-16T04:46:46;98487.97;;;4.39;89.74
21273;BME280;36726;52.328;10.552;2023-01-16T04:49:12;98487.03;;;4.35;89.50
21273;BME280;36726;52.328;10.552;2023-01-16T04:51:39;98479.19;;;4.32;89.93
21273;BME280;36726;52.328;10.552;2023-01-16T04:54:06;98480.03;;;4.28;90.15
21273;BME280;36726;52.328;10.552;2023-01-16T04:56:33;98483.53;;;4.24;90.23
21273;BME280;36726;52.328;10.552;2023-01-16T04:59:00;98487.84;;;4.19;90.67
21273;BME280;36726;52.328;10.552;2023-01-16T05:01:26;98477.38;;;4.14;90.73
21273;BME280;36726;52.328;10.552;2023-01-16T05:03:53;98471.25;;;4.12;90.39
21273;BME280;36726;52.328;10.552;2023-01-16T05:06:20;98475.66;;;4.18;91.07
21273;BME280;36726;52.328;10.552;2023-01-16T05:08:46;98469.56;;;4.25;91.11
21273;BME280;36726;52.328;10.552;2023-01-16T05:11:13;98460.84;;;4.26;91.73
21273;BME280;36726;52.328;10.552;2023-01-16T05:13:39;98453.00;;;4.23;91.16
21273;BME280;36726;52.328;10.552;2023-01-16T05:16:06;98457.34;;;4.18;91.09
21273;BME280;36726;52.328;10.552;2023-01-16T05:18:33;98452.94;;;4.12;91.81
21273;BME280;36726;52.328;10.552;2023-01-16T05:20:59;98448.56;;;4.07;91.60
21273;BME280;36726;52.328;10.552;2023-01-16T05:23:27;98445.06;;;4.02;92.26
21273;BME280;36726;52.328;10.552;2023-01-16T05:25:53;98444.16;;;3.97;92.06
21273;BME280;36726;52.328;10.552;2023-01-16T05:28:20;98440.66;;;3.93;92.38
21273;BME280;36726;52.328;10.552;2023-01-16T05:30:47;98443.25;;;3.86;92.45
21273;BME280;36726;52.328;10.552;2023-01-16T05:33:14;98429.28;;;3.82;92.97
21273;BME280;36726;52.328;10.552;2023-01-16T05:35:40;98434.47;;;3.79;92.68
21273;BME280;36726;52.328;10.552;2023-01-16T05:38:07;98428.34;;;3.74;93.03
21273;BME280;36726;52.328;10.552;2023-01-16T05:40:34;98420.50;;;3.70;93.40
21273;BME280;36726;52.328;10.552;2023-01-16T05:43:00;98425.69;;;3.65;93.22
21273;BME280;36726;52.328;10.552;2023-01-16T05:45:27;98421.28;;;3.61;93.64
21273;BME280;36726;52.328;10.552;2023-01-16T05:47:55;98418.66;;;3.57;93.99
21273;BME280;36726;52.328;10.552;2023-01-16T05:50:22;98410.78;;;3.52;94.23
21273;BME280;36726;52.328;10.552;2023-01-16T05:52:49;98413.41;;;3.51;94.63
21273;BME280;36726;52.328;10.552;2023-01-16T05:55:16;98409.03;;;3.48;94.86
21273;BME280;36726;52.328;10.552;2023-01-16T05:57:43;98408.16;;;3.46;94.78
21273;BME280;36726;52.328;10.552;2023-01-16T06:00:10;98405.50;;;3.42;95.31
21273;BME280;36726;52.328;10.552;2023-01-16T06:02:36;98404.66;;;3.43;95.57
21273;BME280;36726;52.328;10.552;2023-01-16T06:05:03;98415.94;;;3.40;95.49
21273;BME280;36726;52.328;10.552;2023-01-16T06:07:30;98411.56;;;3.38;95.77
21273;BME280;36726;52.328;10.552;2023-01-16T06:09:57;98400.28;;;3.42;96.05
21273;BME280;36726;52.328;10.552;2023-01-16T06:12:23;98396.88;;;3.50;96.25
21273;BME280;36726;52.328;10.552;2023-01-16T06:14:51;98396.94;;;3.64;96.59
21273;BME280;36726;52.328;10.552;2023-01-16T06:17:17;98392.63;;;3.75;96.83
21273;BME280;36726;52.328;10.552;2023-01-16T06:19:45;98388.34;;;3.87;96.67
21273;BME280;36726;52.328;10.552;2023-01-16T06:22:12;98395.38;;;3.99;96.93
21273;BME280;36726;52.328;10.552;2023-01-16T06:24:39;98398.00;;;4.11;96.95
21273;BME280;36726;52.328;10.552;2023-01-16T06:27:06;98389.34;;;4.24;96.92
21273;BME280;36726;52.328;10.552;2023-01-16T06:29:33;98385.88;;;4.34;96.66
21273;BME280;36726;52.328;10.552;2023-01-16T06:31:59;98381.53;;;4.44;96.73
21273;BME280;36726;52.328;10.552;2023-01-16T06:34:26;98372.84;;;4.48;96.56
21273;BME280;36726;52.328;10.552;2023-01-16T06:36:53;98369.31;;;4.49;97.40
21273;BME280;36726;52.328;10.552;2023-01-16T06:39:19;98358.84;;;4.43;96.72
21273;BME280;36726;52.328;10.552;2023-01-16T06:41:46;98347.50;;;4.35;97.24
21273;BME280;36726;52.328;10.552;2023-01-16T06:44:12;98340.47;;;4.26;97.09
21273;BME280;36726;52.328;10.552;2023-01-16T06:46:39;98342.22;;;4.16;97.16
21273;BME280;36726;52.328;10.552;2023-01-16T06:49:10;98333.47;;;4.07;97.47
21273;BME280;36726;52.328;10.552;2023-01-16T06:51:37;98332.59;;;4.02;97.14
21273;BME280;36726;52.328;10.552;2023-01-16T06:54:04;98326.47;;;3.94;97.20
21273;BME280;36726;52.328;10.552;2023-01-16T06:56:30;98318.63;;;3.89;97.53
21273;BME280;36726;52.328;10.552;2023-01-16T06:58:57;98318.59;;;3.86;97.57
21273;BME280;36726;52.328;10.552;2023-01-16T07:01:23;98314.25;;;3.84;97.83
21273;BME280;36726;52.328;10.552;2023-01-16T07:03:50;98322.94;;;3.83;98.26
21273;BME280;36726;52.328;10.552;2023-01-16T07:06:17;98314.25;;;3.81;97.82
21273;BME280;36726;52.328;10.552;2023-01-16T07:08:44;98312.47;;;3.77;98.06
21273;BME280;36726;52.328;10.552;2023-01-16T07:11:11;98308.09;;;3.76;98.24
21273;BME280;36726;52.328;10.552;2023-01-16T07:13:37;98299.38;;;3.74;98.31
21273;BME280;36726;52.328;10.552;2023-01-16T07:16:04;98303.75;;;3.72;98.08
21273;BME280;36726;52.328;10.552;2023-01-16T07:18:49;98297.59;;;3.68;97.97
21273;BME280;36726;52.328;10.552;2023-01-16T07:21:34;98298.50;;;3.66;98.25
21273;BME280;36726;52.328;10.552;2023-01-16T07:24:23;98291.50;;;3.65;98.46
21273;BME280;36726;52.328;10.552;2023-01-16T07:26:55;98288.91;;;3.71;98.48
21273;BME280;36726;52.328;10.552;2023-01-16T07:29:25;98292.44;;;3.80;98.80
21273;BME280;36726;52.328;10.552;2023-01-16T07:31:52;98282.88;;;3.84;98.63
21273;BME280;36726;52.328;10.552;2023-01-16T07:34:19;98284.59;;;3.79;98.08
21273;BME280;36726;52.328;10.552;2023-01-16T07:36:45;98281.97;;;3.73;98.01
21273;BME280;36726;52.328;10.552;2023-01-16T07:39:12;98282.81;;;3.66;98.33
21273;BME280;36726;52.328;10.552;2023-01-16T07:41:38;98274.09;;;3.61;98.73
21273;BME280;36726;52.328;10.552;2023-01-16T07:44:22;98280.16;;;3.58;98.42
21273;BME280;36726;52.328;10.552;2023-01-16T07:46:49;98281.00;;;3.53;98.66
21273;BME280;36726;52.328;10.552;2023-01-16T07:49:15;98271.44;;;3.52;99.21
21273;BME280;36726;52.328;10.552;2023-01-16T07:51:42;98271.44;;;3.50;99.79
21273;BME280;36726;52.328;10.552;2023-01-16T07:54:08;98266.19;;;3.49;99.49
21273;BME280;36726;52.328;10.552;2023-01-16T07:56:35;98257.50;;;3.48;99.76
21273;BME280;36726;52.328;10.552;2023-01-16T07:59:02;98248.78;;;3.45;99.76
21273;BME280;36726;52.328;10.552;2023-01-16T08:01:28;98247.88;;;3.44;100.00
21273;BME280;36726;52.328;10.552;2023-01-16T08:03:55;98247.88;;;3.44;99.98
21273;BME280;36726;52.328;10.552;2023-01-16T08:06:22;98238.28;;;3.42;100.00
21273;BME280;36726;52.328;10.552;2023-01-16T08:08:49;98234.78;;;3.40;100.00
21273;BME280;36726;52.328;10.552;2023-01-16T08:11:15;98224.34;;;3.38;100.00
21273;BME280;36726;52.328;10.552;2023-01-16T08:14:06;98220.84;;;3.36;100.00
21273;BME280;36726;52.328;10.552;2023-01-16T08:16:33;98233.91;;;3.36;100.00
21273;BME280;36726;52.328;10.552;2023-01-16T08:19:00;98215.66;;;3.42;100.00
21273;BME280;36726;52.328;10.552;2023-01-16T08:21:26;98230.50;;;3.54;100.00
21273;BME280;36726;52.328;10.552;2023-01-16T08:23:53;98221.81;;;3.61;100.00
21273;BME280;36726;52.328;10.552;2023-01-16T08:26:19;98220.09;;;3.66;100.00
21273;BME280;36726;52.328;10.552;2023-01-16T08:28:46;98214.00;;;3.70;100.00
21273;BME280;36726;52.328;10.552;2023-01-16T08:31:13;98211.38;;;3.73;100.00
21273;BME280;36726;52.328;10.552;2023-01-16T08:33:42;98201.81;;;3.75;100.00
21273;BME280;36726;52.328;10.552;2023-01-16T08:36:11;98198.31;;;3.77;100.00
21273;BME280;36726;52.328;10.552;2023-01-16T08:38:38;98198.31;;;3.82;100.00
21273;BME280;36726;52.328;10.552;2023-01-16T08:41:05;98194.84;;;3.87;100.00
21273;BME280;36726;52.328;10.552;2023-01-16T08:43:52;98182.63;;;3.95;100.00
21273;BME280;36726;52.328;10.552;2023-01-16T08:46:38;98176.56;;;4.04;100.00
21273;BME280;36726;52.328;10.552;2023-01-16T08:49:24;98179.19;;;4.11;100.00
21273;BME280;36726;52.328;10.552;2023-01-16T08:52:10;98175.69;;;4.20;100.00
21273;BME280;36726;52.328;10.552;2023-01-16T08:54:37;98169.59;;;4.24;100.00
21273;BME280;36726;52.328;10.552;2023-01-16T08:57:05;98172.19;;;4.27;99.60
21273;BME280;36726;52.328;10.552;2023-01-16T08:59:31;98167.81;;;4.31;99.59
21273;BME280;36726;52.328;10.552;2023-01-16T09:02:04;98158.22;;;4.34;99.38
21273;BME280;36726;52.328;10.552;2023-01-16T09:04:31;98152.97;;;4.37;99.45
21273;BME280;36726;52.328;10.552;2023-01-16T09:06:57;98158.19;;;4.45;99.09
21273;BME280;36726;52.328;10.552;2023-01-16T09:09:24;98146.84;;;4.50;98.36
21273;BME280;36726;52.328;10.552;2023-01-16T09:11:55;98136.38;;;4.56;98.19
21273;BME280;36726;52.328;10.552;2023-01-16T09:14:40;98136.38;;;4.64;97.70
21273;BME280;36726;52.328;10.552;2023-01-16T09:17:07;98138.09;;;4.72;97.15
21273;BME280;36726;52.328;10.552;2023-01-16T09:19:34;98131.94;;;4.79;97.02
21273;BME280;36726;52.328;10.552;2023-01-16T09:22:03;98131.03;;;4.86;96.75
21273;BME280;36726;52.328;10.552;2023-01-16T09:24:33;98131.88;;;4.93;96.88
21273;BME280;36726;52.328;10.552;2023-01-16T09:27:02;98127.50;;;4.99;96.77
21273;BME280;36726;52.328;10.552;2023-01-16T09:29:30;98123.09;;;5.06;96.17
21273;BME280;36726;52.328;10.552;2023-01-16T09:31:57;98123.97;;;5.09;95.96
21273;BME280;36726;52.328;10.552;2023-01-16T09:34:24;98116.09;;;5.12;95.28
21273;BME280;36726;52.328;10.552;2023-01-16T09:36:51;98109.94;;;5.16;94.60
21273;BME280;36726;52.328;10.552;2023-01-16T09:39:17;98104.72;;;5.19;94.19
21273;BME280;36726;52.328;10.552;2023-01-16T09:44:43;98104.69;;;5.27;92.78
21273;BME280;36726;52.328;10.552;2023-01-16T09:47:11;98101.16;;;5.29;91.94
21273;BME280;36726;52.328;10.552;2023-01-16T09:49:51;98089.78;;;5.32;92.43
21273;BME280;36726;52.328;10.552;2023-01-16T09:52:23;98094.13;;;5.35;91.48
21273;BME280;36726;52.328;10.552;2023-01-16T09:55:21;98081.00;;;5.41;91.89
21273;BME280;36726;52.328;10.552;2023-01-16T09:58:13;98072.22;;;5.45;91.43
21273;BME280;36726;52.328;10.552;2023-01-16T10:01:02;98059.06;;;5.51;91.06
21273;BME280;36726;52.328;10.552;2023-01-16T10:03:29;98050.28;;;5.55;91.20
21273;BME280;36726;52.328;10.552;2023-01-16T10:09:01;98027.53;;;5.63;89.36
21273;BME280;36726;52.328;10.552;2023-01-16T10:11:36;98021.38;;;5.65;89.30
21273;BME280;36726;52.328;10.552;2023-01-16T10:25:15;97979.25;;;5.88;86.31
21273;BME280;36726;52.328;10.552;2023-01-16T10:28:00;97971.28;;;5.97;86.60
21273;BME280;36726;52.328;10.552;2023-01-16T10:30:44;97971.19;;;6.06;86.08
21273;BME280;36726;52.328;10.552;2023-01-16T10:35:49;97943.84;;;6.23;84.94
21273;BME280;36726;52.328;10.552;2023-01-16T10:44:04;97925.09;;;6.52;83.96
21273;BME280;36726;52.328;10.552;2023-01-16T10:47:15;97923.25;;;6.60;82.95
21273;BME280;36726;52.328;10.552;2023-01-16T10:50:01;97915.28;;;6.66;82.50
21273;BME280;36726;52.328;10.552;2023-01-16T10:52:28;97888.88;;;6.77;82.32
21273;BME280;36726;52.328;10.552;2023-01-16T10:54:57;97885.28;;;6.84;81.04
21273;BME280;36726;52.328;10.552;2023-01-16T10:57:26;97877.28;;;6.91;81.04
21273;BME280;36726;52.328;10.552;2023-01-16T10:59:58;97860.53;;;6.98;81.15
21273;BME280;36726;52.328;10.552;2023-01-16T11:02:33;97840.34;;;6.99;80.12
21273;BME280;36726;52.328;10.552;2023-01-16T11:05:00;97836.88;;;6.98;79.27
21273;BME280;36726;52.328;10.552;2023-01-16T11:07:29;97841.22;;;6.99;79.53
21273;BME280;36726;52.328;10.552;2023-01-16T11:09:56;97834.22;;;7.00;79.19
21273;BME280;36726;52.328;10.552;2023-01-16T11:12:28;97826.31;;;7.01;79.51
21273;BME280;36726;52.328;10.552;2023-01-16T11:15:18;97828.03;;;7.04;78.23
21273;BME280;36726;52.328;10.552;2023-01-16T11:21:02;97810.31;;;7.13;78.48
21273;BME280;36726;52.328;10.552;2023-01-16T11:23:42;97798.84;;;7.17;78.02
21273;BME280;36726;52.328;10.552;2023-01-16T11:26:10;97804.97;;;7.19;77.17
21273;BME280;36726;52.328;10.552;2023-01-16T11:28:37;97790.97;;;7.17;76.75
21273;BME280;36726;52.328;10.552;2023-01-16T11:31:14;97784.91;;;7.14;76.98
21273;BME280;36726;52.328;10.552;2023-01-16T11:33:46;97783.19;;;7.13;76.76
21273;BME280;36726;52.328;10.552;2023-01-16T11:36:16;97783.19;;;7.11;76.56
21273;BME280;36726;52.328;10.552;2023-01-16T11:38:46;97771.00;;;7.09;76.41
21273;BME280;36726;52.328;10.552;2023-01-16T11:41:18;97761.34;;;7.08;76.29
21273;BME280;36726;52.328;10.552;2023-01-16T11:46:49;97726.28;;;7.10;75.62
21273;BME280;36726;52.328;10.552;2023-01-16T11:49:28;97719.28;;;7.11;75.46
21273;BME280;36726;52.328;10.552;2023-01-16T11:51:59;97712.22;;;7.13;75.57
21273;BME280;36726;52.328;10.552;2023-01-16T11:54:32;97694.69;;;7.13;75.33
21273;BME280;36726;52.328;10.552;2023-01-16T11:57:05;97687.63;;;7.15;75.26
21273;BME280;36726;52.328;10.552;2023-01-16T12:00:06;97682.41;;;7.14;74.46
21273;BME280;36726;52.328;10.552;2023-01-16T12:17:08;97650.06;;;7.10;74.73
21273;BME280;36726;52.328;10.552;2023-01-16T12:28:23;97634.19;;;7.16;74.61
21273;BME280;36726;52.328;10.552;2023-01-16T12:36:45;97624.25;;;7.30;74.08
21273;BME280;36726;52.328;10.552;2023-01-16T12:39:28;97611.97;;;7.29;74.33
21273;BME280;36726;52.328;10.552;2023-01-16T12:42:14;97609.41;;;7.28;74.21
21273;BME280;36726;52.328;10.552;2023-01-16T12:45:15;97603.34;;;7.24;74.16
21273;BME280;36726;52.328;10.552;2023-01-16T12:48:06;97589.34;;;7.22;74.08
21273;BME280;36726;52.328;10.552;2023-01-16T12:56:19;97569.25;;;7.21;73.64
21273;BME280;36726;52.328;10.552;2023-01-16T12:58:55;97564.88;;;7.22;73.02
21273;BME280;36726;52.328;10.552;2023-01-16T13:01:36;97561.44;;;7.18;73.13
21273;BME280;36726;52.328;10.552;2023-01-16T13:04:17;97547.47;;;7.16;73.38
21273;BME280;36726;52.328;10.552;2023-01-16T13:06:50;97542.25;;;7.13;72.88
21273;BME280;36726;52.328;10.552;2023-01-16T13:09:51;97552.84;;;7.10;73.08
21273;BME280;36726;52.328;10.552;2023-01-16T13:12:39;97548.47;;;7.11;72.77
21273;BME280;36726;52.328;10.552;2023-01-16T13:15:28;97546.69;;;7.11;73.37
21273;BME280;36726;52.328;10.552;2023-01-16T13:20:31;97543.16;;;7.12;73.40
21273;BME280;36726;52.328;10.552;2023-01-16T13:23:13;97527.28;;;7.17;72.38
21273;BME280;36726;52.328;10.552;2023-01-16T13:25:43;97527.19;;;7.21;71.97
21273;BME280;36726;52.328;10.552;2023-01-16T13:28:21;97525.28;;;7.28;72.19
21273;BME280;36726;52.328;10.552;2023-01-16T13:30:52;97516.34;;;7.35;72.07
21273;BME280;36726;52.328;10.552;2023-01-16T13:33:22;97516.22;;;7.41;71.93
21273;BME280;36726;52.328;10.552;2023-01-16T13:36:25;97503.88;;;7.45;71.17
21273;BME280;36726;52.328;10.552;2023-01-16T13:41:26;97489.75;;;7.49;70.55
21273;BME280;36726;52.328;10.552;2023-01-16T13:44:20;97484.53;;;7.47;70.87
21273;BME280;36726;52.328;10.552;2023-01-16T13:47:13;97487.16;;;7.46;70.75
21273;BME280;36726;52.328;10.552;2023-01-16T13:49:41;97467.88;;;7.47;71.09
21273;BME280;36726;52.328;10.552;2023-01-16T13:52:20;97474.84;;;7.48;70.85
21273;BME280;36726;52.328;10.552;2023-01-16T13:54:50;97469.59;;;7.48;70.31
21273;BME280;36726;52.328;10.552;2023-01-16T13:57:20;97463.41;;;7.50;70.78
21273;BME280;36726;52.328;10.552;2023-01-16T13:59:59;97463.31;;;7.53;71.00
21273;BME280;36726;52.328;10.552;2023-01-16T14:05:41;97461.47;;;7.58;70.79
21273;BME280;36726;52.328;10.552;2023-01-16T14:11:15;97464.94;;;7.59;70.80
21273;BME280;36726;52.328;10.552;2023-01-16T14:13:42;97466.75;;;7.57;70.81
21273;BME280;36726;52.328;10.552;2023-01-16T14:19:13;97464.44;;;7.45;70.65
21273;BME280;36726;52.328;10.552;2023-01-16T14:21:46;97459.31;;;7.38;70.88
21273;BME280;36726;52.328;10.552;2023-01-16T14:24:41;97459.56;;;7.28;70.77
21273;BME280;36726;52.328;10.552;2023-01-16T14:27:17;97448.44;;;7.18;71.36
21273;BME280;36726;52.328;10.552;2023-01-16T14:29:49;97451.28;;;7.09;71.44
21273;BME280;36726;52.328;10.552;2023-01-16T14:32:18;97447.03;;;7.04;71.57
21273;BME280;36726;52.328;10.552;2023-01-16T14:37:30;97439.16;;;7.02;73.02
21273;BME280;36726;52.328;10.552;2023-01-16T14:42:55;97427.88;;;6.97;73.27
21273;BME280;36726;52.328;10.552;2023-01-16T14:55:32;97397.69;;;6.78;74.46
21273;BME280;36726;52.328;10.552;2023-01-16T14:58:00;97396.03;;;6.74;74.35
21273;BME280;36726;52.328;10.552;2023-01-16T15:00:33;97400.50;;;6.71;74.80
21273;BME280;36726;52.328;10.552;2023-01-16T15:03:09;97397.94;;;6.66;75.04
21273;BME280;36726;52.328;10.552;2023-01-16T15:05:54;97384.06;;;6.61;75.06
21273;BME280;36726;52.328;10.552;2023-01-16T15:08:28;97397.28;;;6.58;75.25
21273;BME280;36726;52.328;10.552;2023-01-16T15:11:01;97390.34;;;6.54;75.49
21273;BME280;36726;52.328;10.552;2023-01-16T15:22:59;97388.97;;;6.38;76.76
21273;BME280;36726;52.328;10.552;2023-01-16T15:26:01;97389.13;;;6.30;76.42
21273;BME280;36726;52.328;10.552;2023-01-16T15:28:54;97375.22;;;6.27;76.97
21273;BME280;36726;52.328;10.552;2023-01-16T15:31:32;97374.41;;;6.23;77.52
21273;BME280;36726;52.328;10.552;2023-01-16T15:36:43;97367.53;;;6.18;77.76
21273;BME280;36726;52.328;10.552;2023-01-16T15:41:58;97369.38;;;6.13;78.00
21273;BME280;36726;52.328;10.552;2023-01-16T15:44:45;97365.94;;;6.11;77.57
21273;BME280;36726;52.328;10.552;2023-01-16T15:50:30;97362.50;;;6.07;78.29
21273;BME280;36726;52.328;10.552;2023-01-16T15:52:59;97356.38;;;6.07;78.59